Time;durP1;ratioP1;P1;durP2;ratioP2;P2;SDS_P1;SDS_P2;PMS_P1;PMS_P2;Temp;Humidity;BMP_temperature;BMP_pressure;BME280_temperature;BME280_humidity;BME280_pressure;Samples;Min_cycle;Max_cycle;Signal;HPM_P1;HPM_P2
2023/01/08 00:01:40;;;;;;;7.47;4.40;;;;;;;4.35;94.00;94973.31;5073082;28;20176;-55
2023/01/08 00:04:05;;;;;;;12.07;5.43;;;;;;;4.42;93.85;94987.19;5073169;28;20209;-54
2023/01/08 00:06:31;;;;;;;9.27;5.27;;;;;;;4.24;92.82;94953.81;5072917;28;20237;-53
2023/01/08 00:08:56;;;;;;;8.33;5.03;;;;;;;4.36;94.17;94965.72;5054851;28;20588;-54
2023/01/08 00:11:21;;;;;;;8.93;5.07;;;;;;;4.32;94.47;94936.56;5072834;28;20709;-55
2023/01/08 00:13:47;;;;;;;10.53;5.50;;;;;;;4.24;94.39;94956.31;5072910;28;20241;-53
2023/01/08 00:16:15;;;;;;;7.50;4.43;;;;;;;4.16;93.07;94960.97;5072576;28;20290;-58
2023/01/08 00:18:41;;;;;;;9.93;5.43;;;;;;;4.02;94.26;94954.16;5072776;28;20204;-56
2023/01/08 00:21:07;;;;;;;7.57;4.57;;;;;;;3.98;96.44;94931.78;5072603;28;20291;-55
2023/01/08 00:23:34;;;;;;;8.17;4.93;;;;;;;3.98;95.90;94934.31;5054905;28;20205;-53
2023/01/08 00:26:01;;;;;;;9.07;6.03;;;;;;;4.15;94.27;94959.31;5072690;28;20259;-56
2023/01/08 00:28:26;;;;;;;6.63;4.57;;;;;;;4.10;96.32;94941.97;5072928;28;20642;-54
2023/01/08 00:30:52;;;;;;;10.60;5.37;;;;;;;4.18;94.93;94959.97;5072526;28;20762;-52
2023/01/08 00:33:18;;;;;;;15.57;5.77;;;;;;;4.07;95.59;94937.13;5072656;28;20193;-57
2023/01/08 00:35:43;;;;;;;8.17;5.07;;;;;;;4.20;94.26;94957.38;5072766;28;20211;-55
2023/01/08 00:38:09;;;;;;;10.53;5.27;;;;;;;4.41;93.16;94988.88;5054751;28;20703;-54
2023/01/08 00:40:35;;;;;;;11.60;5.47;;;;;;;4.22;93.55;94968.97;5072520;28;20781;-57
2023/01/08 00:43:00;;;;;;;8.43;5.37;;;;;;;4.28;94.44;94960.28;5072319;28;20198;-57
2023/01/08 00:45:26;;;;;;;9.60;5.17;;;;;;;4.35;94.76;94970.81;5072346;28;20294;-56
2023/01/08 00:47:51;;;;;;;11.63;6.70;;;;;;;4.31;95.57;94937.47;5072597;28;20682;-57
2023/01/08 00:50:18;;;;;;;12.23;7.07;;;;;;;4.34;94.40;94974.22;5072040;28;20583;-57
2023/01/08 00:52:43;;;;;;;12.47;7.53;;;;;;;4.28;93.69;94968.63;5072298;28;20229;-53
2023/01/08 00:55:09;;;;;;;12.67;7.13;;;;;;;4.29;93.27;94987.06;5071890;28;20208;-54
2023/01/08 00:57:36;;;;;;;11.13;7.27;;;;;;;4.17;94.68;94965.09;5072194;28;20200;-56
2023/01/08 01:00:04;;;;;;;9.77;5.60;;;;;;;4.35;92.21;94994.25;5071987;28;20224;-57
2023/01/08 01:02:29;;;;;;;9.50;6.10;;;;;;;4.37;92.80;94995.00;5072321;28;20198;-56
2023/01/08 01:04:55;;;;;;;12.60;7.50;;;;;;;4.33;93.28;94968.38;5072008;28;20540;-56
2023/01/08 01:07:20;;;;;;;14.93;8.00;;;;;;;4.42;92.25;95007.31;5072127;28;20196;-56
2023/01/08 01:09:45;;;;;;;14.20;6.80;;;;;;;4.28;92.39;94987.97;5071963;28;20297;-53
2023/01/08 01:12:11;;;;;;;12.87;7.07;;;;;;;4.52;91.48;95005.91;5072127;28;20232;-52
2023/01/08 01:14:37;;;;;;;7.83;5.93;;;;;;;4.57;91.60;95014.00;5071634;28;20212;-56
2023/01/08 01:17:03;;;;;;;12.87;6.17;;;;;;;4.46;93.33;94976.88;5053835;28;20191;-54
2023/01/08 01:19:28;;;;;;;10.87;6.53;;;;;;;4.49;92.24;94996.00;5053796;28;20708;-54
2023/01/08 01:21:53;;;;;;;12.17;6.83;;;;;;;4.58;91.46;95008.91;5071623;28;20241;-54
2023/01/08 01:24:20;;;;;;;11.67;7.27;;;;;;;4.62;90.14;95020.44;5071550;28;20216;-57
2023/01/08 01:26:46;;;;;;;11.87;7.83;;;;;;;4.46;90.67;95013.81;5071791;28;20187;-54
2023/01/08 01:29:11;;;;;;;12.63;7.20;;;;;;;4.27;91.68;94991.34;5071552;28;20640;-53
2023/01/08 01:31:37;;;;;;;14.30;7.47;;;;;;;4.22;91.55;94983.28;5071553;28;20240;-58
2023/01/08 01:34:02;;;;;;;10.70;7.03;;;;;;;4.33;91.35;94991.03;5072104;28;20624;-53
2023/01/08 01:36:28;;;;;;;11.37;6.53;;;;;;;4.28;91.75;94988.75;5071749;28;20208;-56
2023/01/08 01:38:56;;;;;;;13.57;6.77;;;;;;;4.34;91.41;94995.19;5071698;28;20196;-54
2023/01/08 01:41:30;;;;;;;10.87;6.80;;;;;;;4.33;91.26;94992.72;5071467;28;20207;-57
2023/01/08 01:44:19;;;;;;;9.23;5.93;;;;;;;4.23;92.68;94964.75;5071283;28;20573;-56
2023/01/08 01:46:46;;;;;;;8.77;5.40;;;;;;;4.28;91.81;94979.59;5069816;28;20189;-53
2023/01/08 01:49:19;;;;;;;7.60;5.10;;;;;;;4.19;93.72;94954.06;5069167;28;20221;-56
2023/01/08 01:51:52;;;;;;;8.93;5.13;;;;;;;4.05;92.77;94965.75;5071068;28;20700;-53
2023/01/08 01:54:17;;;;;;;8.17;4.83;;;;;;;3.85;93.62;94945.91;5071309;28;20298;-55
2023/01/08 01:56:44;;;;;;;9.30;5.30;;;;;;;3.57;95.22;94918.13;5071472;28;20279;-54
2023/01/08 01:59:11;;;;;;;11.00;5.30;;;;;;;3.37;96.52;94891.56;5053484;28;20316;-57
2023/01/08 02:01:37;;;;;;;14.73;5.63;;;;;;;3.37;97.38;94902.38;5071333;28;20196;-55
2023/01/08 02:04:02;;;;;;;9.97;5.17;;;;;;;3.43;97.92;94894.53;5070633;28;20677;-56
2023/01/08 02:06:39;;;;;;;7.10;4.90;;;;;;;3.46;97.71;94897.75;5071096;28;20196;-55
2023/01/08 02:09:14;;;;;;;7.63;4.30;;;;;;;3.53;98.08;94899.06;5071269;28;20247;-53
2023/01/08 02:11:39;;;;;;;11.67;4.73;;;;;;;3.57;97.15;94906.38;5070843;28;20308;-55
2023/01/08 02:14:14;;;;;;;7.50;4.43;;;;;;;3.45;96.69;94906.22;5070879;28;20275;-55
2023/01/08 02:16:48;;;;;;;10.17;4.80;;;;;;;3.26;97.73;94904.66;5071256;28;20196;-56
2023/01/08 02:19:41;;;;;;;7.90;4.63;;;;;;;3.22;98.89;94890.66;5071318;28;20184;-56
2023/01/08 02:22:18;;;;;;;8.50;4.57;;;;;;;3.17;99.56;94897.59;5071019;28;20176;-53
2023/01/08 02:25:02;;;;;;;8.53;5.17;;;;;;;3.04;100.00;94884.06;5070857;28;20784;-53
2023/01/08 02:27:29;;;;;;;8.10;4.77;;;;;;;2.92;100.00;94889.72;5052953;28;20190;-54
2023/01/08 02:29:57;;;;;;;9.93;5.20;;;;;;;2.84;100.00;94879.28;5052707;28;20281;-55
2023/01/08 02:32:27;;;;;;;6.20;4.57;;;;;;;2.91;100.00;94883.06;5070698;28;20273;-54
2023/01/08 02:34:53;;;;;;;7.63;4.20;;;;;;;2.88;100.00;94895.78;5070587;28;20205;-52
2023/01/08 02:37:19;;;;;;;7.53;4.20;;;;;;;2.89;100.00;94872.31;5070739;28;20185;-56
2023/01/08 02:40:01;;;;;;;8.03;4.03;;;;;;;3.01;100.00;94901.78;5070769;28;20212;-55
2023/01/08 02:42:42;;;;;;;7.23;4.07;;;;;;;3.06;100.00;94894.84;5070830;28;20284;-54
2023/01/08 02:45:47;;;;;;;6.20;3.37;;;;;;;2.90;99.97;94871.44;5070322;28;20220;-56
2023/01/08 02:48:39;;;;;;;5.17;3.50;;;;;;;3.15;99.78;94903.63;5025861;28;20208;-52
2023/01/08 02:51:16;;;;;;;6.90;3.20;;;;;;;3.28;99.52;94897.84;5070423;28;20217;-55
2023/01/08 02:53:49;;;;;;;6.20;3.57;;;;;;;3.11;100.00;94875.31;5069704;28;20308;-55
2023/01/08 02:56:20;;;;;;;5.90;4.20;;;;;;;3.17;100.00;94882.53;5068418;28;20209;-54
2023/01/08 02:58:47;;;;;;;6.47;3.67;;;;;;;3.30;98.02;94896.06;5068900;28;20181;-54
2023/01/08 03:01:15;;;;;;;7.53;4.33;;;;;;;3.45;97.79;94912.06;5069368;28;20250;-56
2023/01/08 03:03:44;;;;;;;6.97;3.90;;;;;;;3.59;96.95;94928.91;5071024;28;20195;-54
2023/01/08 03:06:14;;;;;;;5.73;3.60;;;;;;;3.55;97.07;94913.19;5070472;28;20209;-55
2023/01/08 03:08:42;;;;;;;4.80;3.33;;;;;;;3.59;94.13;94954.03;5070694;28;20194;-55
2023/01/08 03:11:14;;;;;;;6.43;3.53;;;;;;;3.52;95.01;94942.66;5070296;28;20296;-53
2023/01/08 03:14:04;;;;;;;6.43;3.53;;;;;;;3.50;96.18;94926.84;5070562;28;20219;-53
2023/01/08 03:16:34;;;;;;;6.37;4.50;;;;;;;3.53;95.09;94942.63;5071183;28;20198;-57
2023/01/08 03:19:07;;;;;;;5.87;3.90;;;;;;;3.45;95.00;94948.91;5073671;28;20198;-56
2023/01/08 03:21:36;;;;;;;6.20;3.93;;;;;;;3.19;95.80;94925.97;5055627;28;20285;-53
2023/01/08 03:24:03;;;;;;;6.20;3.93;;;;;;;2.98;98.73;94896.13;5055555;28;20654;-56
2023/01/08 03:26:31;;;;;;;6.83;4.20;;;;;;;2.86;99.92;94876.69;5073576;28;20204;-53
2023/01/08 03:28:58;;;;;;;5.37;3.90;;;;;;;3.12;98.31;94916.31;5071969;28;20271;-52
2023/01/08 03:31:26;;;;;;;7.37;4.37;;;;;;;2.98;98.24;94901.97;5072039;28;20205;-54
2023/01/08 03:33:53;;;;;;;8.60;5.17;;;;;;;2.90;99.11;94891.50;5073725;28;20208;-52
2023/01/08 03:36:22;;;;;;;7.53;4.43;;;;;;;2.85;100.00;94890.91;5073440;28;20200;-56
2023/01/08 03:38:58;;;;;;;6.97;4.27;;;;;;;2.88;100.00;94900.00;5073681;28;20193;-53
2023/01/08 03:41:26;;;;;;;6.57;4.00;;;;;;;2.89;100.00;94902.44;5073431;28;20193;-56
2023/01/08 03:43:52;;;;;;;7.40;4.37;;;;;;;3.02;100.00;94900.91;5073345;28;20199;-56
2023/01/08 03:46:22;;;;;;;7.23;4.27;;;;;;;2.98;100.00;94896.94;5073893;28;20209;-56
2023/01/08 03:48:50;;;;;;;7.00;4.27;;;;;;;2.95;100.00;94894.56;5073725;28;20238;-57
2023/01/08 03:51:17;;;;;;;5.87;4.10;;;;;;;3.04;99.04;94909.19;5073203;28;20227;-54
2023/01/08 03:53:43;;;;;;;8.23;4.33;;;;;;;3.08;99.14;94889.75;5073474;28;20200;-53
2023/01/08 03:56:08;;;;;;;7.00;3.77;;;;;;;2.95;98.88;94884.53;5073066;28;20735;-56
2023/01/08 03:58:34;;;;;;;5.47;3.20;;;;;;;2.97;97.60;94912.88;5073372;28;20203;-53
2023/01/08 04:00:59;;;;;;;7.63;3.83;;;;;;;2.82;98.68;94902.81;5073012;28;20205;-55
2023/01/08 04:03:25;;;;;;;7.97;4.17;;;;;;;2.77;98.98;94904.78;5072914;28;20228;-54
2023/01/08 04:05:50;;;;;;;8.67;4.07;;;;;;;2.85;99.18;94905.97;5072940;28;20678;-54
2023/01/08 04:08:16;;;;;;;8.27;4.17;;;;;;;2.84;98.50;94906.88;5073064;28;20201;-53
2023/01/08 04:10:41;;;;;;;9.17;4.47;;;;;;;2.90;99.50;94916.63;5072897;28;20236;-53
2023/01/08 04:13:06;;;;;;;6.70;4.30;;;;;;;2.90;99.17;94909.09;5073045;28;20248;-55
2023/01/08 04:15:32;;;;;;;7.60;4.57;;;;;;;3.01;99.33;94911.84;5072730;28;20642;-54
2023/01/08 04:17:58;;;;;;;7.13;4.33;;;;;;;3.07;98.14;94918.28;5073051;28;20229;-55
2023/01/08 04:20:23;;;;;;;6.77;4.70;;;;;;;3.24;96.21;94945.81;5072566;28;20307;-54
2023/01/08 04:22:49;;;;;;;7.67;4.27;;;;;;;3.20;97.54;94929.28;5072123;28;20188;-56
2023/01/08 04:25:14;;;;;;;10.83;4.00;;;;;;;3.16;97.47;94926.13;5072610;28;20220;-52
2023/01/08 04:27:40;;;;;;;5.93;4.20;;;;;;;3.26;95.80;94952.41;5072125;28;20194;-53
2023/01/08 04:30:06;;;;;;;6.80;4.47;;;;;;;3.27;95.77;94948.97;5072579;28;20275;-56
2023/01/08 04:32:31;;;;;;;8.03;4.47;;;;;;;3.21;96.69;94923.38;5070415;28;20429;-55
2023/01/08 04:34:57;;;;;;;8.50;5.00;;;;;;;3.16;95.23;94946.22;5070685;28;20691;-54
2023/01/08 04:37:22;;;;;;;9.87;5.60;;;;;;;2.92;97.59;94904.78;5071051;28;20203;-57
2023/01/08 04:39:48;;;;;;;9.53;5.33;;;;;;;2.74;98.36;94904.91;5072407;28;20290;-53
2023/01/08 04:42:13;;;;;;;7.37;4.13;;;;;;;2.60;99.60;94895.56;5072542;28;20241;-52
2023/01/08 04:44:38;;;;;;;8.63;3.70;;;;;;;2.70;99.22;94896.72;5072393;28;20216;-54
2023/01/08 04:47:04;;;;;;;7.93;4.40;;;;;;;2.64;100.00;94894.53;5072386;28;20271;-52
2023/01/08 04:49:29;;;;;;;7.23;3.53;;;;;;;2.53;100.00;94901.78;5072466;28;20209;-54
2023/01/08 04:51:54;;;;;;;4.97;3.10;;;;;;;2.62;100.00;94886.28;5072282;28;20218;-54
2023/01/08 04:54:20;;;;;;;6.47;4.10;;;;;;;2.59;99.30;94919.03;5054048;28;20736;-53
2023/01/08 04:56:48;;;;;;;5.97;3.70;;;;;;;2.38;100.00;94898.31;5072026;28;20390;-58
2023/01/08 04:59:13;;;;;;;5.97;3.60;;;;;;;2.52;100.00;94907.69;5072342;28;20267;-53
2023/01/08 05:01:39;;;;;;;9.03;4.47;;;;;;;2.36;100.00;94906.81;5072389;28;20275;-57
2023/01/08 05:04:04;;;;;;;6.67;3.83;;;;;;;2.46;100.00;94903.75;5072039;28;20196;-54
2023/01/08 05:06:31;;;;;;;6.20;4.17;;;;;;;2.43;100.00;94903.09;5072065;28;20277;-56
2023/01/08 05:08:57;;;;;;;9.27;3.90;;;;;;;2.42;100.00;94901.50;5072039;28;20204;-53
2023/01/08 05:11:23;;;;;;;6.07;4.33;;;;;;;2.40;100.00;94884.00;5071734;28;20274;-53
2023/01/08 05:13:52;;;;;;;5.17;3.70;;;;;;;2.55;100.00;94905.84;5071918;28;20550;-54
2023/01/08 05:16:17;;;;;;;5.73;3.93;;;;;;;2.59;100.00;94906.47;5071841;28;20218;-54
2023/01/08 05:18:44;;;;;;;6.17;4.20;;;;;;;2.69;99.61;94932.75;5072268;28;20266;-56
2023/01/08 05:21:10;;;;;;;4.87;3.73;;;;;;;2.52;98.81;94928.53;5071512;28;20213;-56
2023/01/08 05:23:35;;;;;;;6.30;3.57;;;;;;;2.51;99.17;94936.16;5071956;28;20219;-53
2023/01/08 05:26:04;;;;;;;5.67;3.40;;;;;;;2.30;100.00;94917.16;5053941;28;20208;-57
2023/01/08 05:28:30;;;;;;;5.07;3.07;;;;;;;2.27;100.00;94899.72;5071763;28;20210;-53
2023/01/08 05:30:56;;;;;;;9.87;4.03;;;;;;;2.17;100.00;94906.91;5071359;28;20269;-54
2023/01/08 05:33:22;;;;;;;8.27;4.10;;;;;;;2.10;100.00;94909.78;5071701;28;20638;-55
2023/01/08 05:35:47;;;;;;;7.90;4.33;;;;;;;2.11;100.00;94894.66;5071121;28;20686;-56
2023/01/08 05:38:13;;;;;;;7.60;4.07;;;;;;;2.00;100.00;94888.53;5071579;28;20594;-54
2023/01/08 05:40:38;;;;;;;6.23;4.23;;;;;;;2.14;100.00;94917.06;5070521;28;20208;-53
2023/01/08 05:43:04;;;;;;;9.33;4.30;;;;;;;2.05;100.00;94919.19;5071874;28;20200;-56
2023/01/08 05:45:30;;;;;;;6.40;3.43;;;;;;;2.03;100.00;94909.25;5071192;28;20565;-56
2023/01/08 05:47:56;;;;;;;6.83;4.10;;;;;;;1.98;100.00;94920.38;5071436;28;20630;-57
2023/01/08 05:50:22;;;;;;;6.43;3.97;;;;;;;1.73;100.00;94914.88;5071005;28;20227;-56
2023/01/08 05:52:47;;;;;;;8.10;4.13;;;;;;;1.81;100.00;94915.34;5071063;28;20216;-53
2023/01/08 05:55:12;;;;;;;5.87;3.87;;;;;;;1.72;100.00;94906.56;5052943;28;20201;-52
2023/01/08 05:57:38;;;;;;;7.13;4.53;;;;;;;1.92;100.00;94918.97;5071255;28;20694;-53
2023/01/08 06:00:06;;;;;;;7.47;4.93;;;;;;;2.00;100.00;94916.13;5071003;28;20197;-55
2023/01/08 06:02:31;;;;;;;6.73;4.50;;;;;;;2.02;100.00;94922.66;5071335;28;20197;-56
2023/01/08 06:04:56;;;;;;;10.73;5.63;;;;;;;2.16;100.00;94927.03;5070897;28;20737;-53
2023/01/08 06:07:22;;;;;;;8.17;4.63;;;;;;;2.15;100.00;94925.41;5070875;28;20196;-54
2023/01/08 06:09:47;;;;;;;11.47;5.00;;;;;;;2.00;100.00;94913.59;5070836;28;20205;-56
2023/01/08 06:12:13;;;;;;;7.77;4.80;;;;;;;1.90;100.00;94923.22;5070834;28;20297;-56
2023/01/08 06:14:38;;;;;;;8.03;4.67;;;;;;;1.83;100.00;94921.09;5052930;28;20205;-54
2023/01/08 06:17:03;;;;;;;7.83;5.03;;;;;;;1.77;100.00;94922.19;5070774;28;20263;-56
2023/01/08 06:19:29;;;;;;;7.90;4.53;;;;;;;1.75;100.00;94926.47;5070568;28;20208;-56
2023/01/08 06:21:55;;;;;;;7.70;4.27;;;;;;;1.80;100.00;94926.28;5069600;28;20224;-54
2023/01/08 06:24:20;;;;;;;7.10;4.40;;;;;;;1.97;100.00;94933.78;5071002;28;20238;-56
2023/01/08 06:26:45;;;;;;;7.10;4.30;;;;;;;2.05;100.00;94921.72;5070909;28;20662;-56
2023/01/08 06:29:11;;;;;;;6.23;3.90;;;;;;;2.12;100.00;94933.09;5070946;28;20647;-53
2023/01/08 06:31:36;;;;;;;6.47;4.27;;;;;;;2.12;100.00;94943.13;5070511;28;20216;-55
2023/01/08 06:34:02;;;;;;;7.33;3.53;;;;;;;2.16;100.00;94939.56;5070349;28;20223;-54
2023/01/08 06:36:27;;;;;;;4.30;3.90;;;;;;;2.26;100.00;94945.78;5070640;28;20275;-54
2023/01/08 06:38:54;;;;;;;6.97;4.23;;;;;;;2.18;100.00;94932.78;5052919;28;20259;-58
2023/01/08 06:41:20;;;;;;;11.77;4.47;;;;;;;2.31;100.00;94933.81;5069871;28;20185;-52
2023/01/08 06:43:46;;;;;;;11.93;5.10;;;;;;;2.41;100.00;94955.06;5070334;28;20203;-56
2023/01/08 06:46:11;;;;;;;11.13;5.40;;;;;;;2.40;100.00;94935.88;5070325;28;20204;-55
2023/01/08 06:48:43;;;;;;;12.53;5.57;;;;;;;2.55;100.00;94945.97;5070412;28;20269;-56
2023/01/08 06:51:09;;;;;;;14.20;7.23;;;;;;;2.58;100.00;94946.72;5072375;28;20234;-58
2023/01/08 06:53:34;;;;;;;10.90;7.43;;;;;;;2.78;100.00;94964.09;5074487;28;20188;-54
2023/01/08 06:56:02;;;;;;;14.73;8.83;;;;;;;2.92;100.00;94966.72;5055819;28;20218;-54
2023/01/08 06:58:29;;;;;;;17.17;9.13;;;;;;;3.10;100.00;94974.16;5074415;28;20193;-56
2023/01/08 07:00:54;;;;;;;16.87;8.53;;;;;;;3.50;100.00;94967.06;5073948;28;20204;-57
2023/01/08 07:03:20;;;;;;;14.57;8.97;;;;;;;3.64;99.10;95008.19;5074273;28;20196;-55
2023/01/08 07:05:45;;;;;;;14.13;8.53;;;;;;;3.63;100.00;94975.59;5074125;28;20205;-55
2023/01/08 07:08:13;;;;;;;15.83;9.30;;;;;;;3.57;98.90;94996.03;5073759;28;20197;-56
2023/01/08 07:10:39;;;;;;;18.97;8.87;;;;;;;3.68;98.24;95003.81;5056042;28;20214;-56
2023/01/08 07:13:06;;;;;;;14.73;8.80;;;;;;;3.89;96.26;95030.34;5074149;28;20258;-53
2023/01/08 07:15:32;;;;;;;13.30;8.40;;;;;;;4.19;100.00;94918.84;5073655;28;20652;-54
2023/01/08 07:17:57;;;;;;;20.03;11.13;;;;;;;6.06;100.00;94982.44;5073883;28;20227;-57
2023/01/08 07:20:24;;;;;;;22.40;14.97;;;;;;;7.04;100.00;94981.16;5055723;28;20306;-59
2023/01/08 07:22:50;;;;;;;29.23;12.87;;;;;;;6.45;100.00;94979.16;5055829;28;20658;-57
2023/01/08 07:25:22;;;;;;;20.97;11.37;;;;;;;6.36;100.00;95042.88;5073563;28;20215;-59
2023/01/08 07:27:48;;;;;;;18.50;11.30;;;;;;;6.06;100.00;95191.91;5073693;28;20228;-57
2023/01/08 07:30:14;;;;;;;18.43;10.67;;;;;;;5.93;100.00;95193.53;5073458;28;20202;-56
2023/01/08 07:32:39;;;;;;;16.73;11.10;;;;;;;5.80;100.00;95200.13;5073532;28;20220;-57
2023/01/08 07:35:05;;;;;;;16.73;10.43;;;;;;;5.83;100.00;95215.09;5073450;28;20274;-57
2023/01/08 07:37:31;;;;;;;21.10;11.03;;;;;;;6.23;100.00;95006.66;5055395;28;20663;-58
2023/01/08 07:39:56;;;;;;;19.10;12.17;;;;;;;5.78;100.00;95184.28;5073348;28;20653;-57
2023/01/08 07:42:21;;;;;;;27.03;15.17;;;;;;;5.81;100.00;95227.81;5073513;28;20286;-58
2023/01/08 07:44:47;;;;;;;27.43;16.53;;;;;;;5.68;100.00;95193.28;5073274;28;20207;-57
2023/01/08 07:47:12;;;;;;;32.30;18.17;;;;;;;5.78;100.00;95186.81;5073371;28;20294;-58
2023/01/08 07:49:38;;;;;;;31.17;19.23;;;;;;;5.74;100.00;95155.91;5038625;28;20209;-58
2023/01/08 07:52:03;;;;;;;29.77;18.57;;;;;;;5.90;100.00;95170.97;5072874;28;20734;-58
2023/01/08 07:54:28;;;;;;;37.83;20.60;;;;;;;6.02;100.00;95190.44;5072428;28;20220;-57
2023/01/08 07:56:54;;;;;;;38.03;20.57;;;;;;;6.13;100.00;95213.38;5073100;28;20214;-56
2023/01/08 07:59:19;;;;;;;40.33;21.03;;;;;;;6.20;100.00;95219.66;5055185;28;20642;-57
2023/01/08 08:01:45;;;;;;;47.80;22.30;;;;;;;6.31;100.00;95257.72;5072469;28;20184;-58
2023/01/08 08:04:12;;;;;;;39.03;22.80;;;;;;;6.18;100.00;95250.97;5071599;28;20196;-58
2023/01/08 08:06:38;;;;;;;39.23;21.80;;;;;;;6.02;100.00;95238.41;5071332;28;20540;-56
2023/01/08 08:09:03;;;;;;;38.77;21.63;;;;;;;6.15;100.00;95235.97;5072774;28;20204;-57
2023/01/08 08:11:29;;;;;;;37.17;22.00;;;;;;;6.15;100.00;95221.66;5072771;28;20211;-57
2023/01/08 08:13:54;;;;;;;40.53;21.20;;;;;;;6.28;100.00;95209.13;5072696;28;20281;-58
2023/01/08 08:16:19;;;;;;;41.03;21.77;;;;;;;6.55;100.00;95245.34;5073049;28;20185;-57
2023/01/08 08:18:45;;;;;;;35.97;21.50;;;;;;;6.79;100.00;95239.66;5073396;28;20216;-56
2023/01/08 08:21:10;;;;;;;35.80;21.10;;;;;;;6.99;100.00;95235.91;5072699;28;20236;-57
2023/01/08 08:23:36;;;;;;;41.50;23.47;;;;;;;7.28;100.00;95280.44;5072932;28;20181;-58
2023/01/08 08:26:03;;;;;;;37.77;19.53;;;;;;;7.48;100.00;95297.72;5072983;28;20623;-57
2023/01/08 08:28:28;;;;;;;38.57;20.67;;;;;;;7.58;100.00;95296.22;5072313;28;20655;-57
2023/01/08 08:30:54;;;;;;;33.13;18.60;;;;;;;7.83;100.00;95289.63;5070847;28;20235;-57
2023/01/08 08:33:19;;;;;;;28.83;18.37;;;;;;;8.32;100.00;95321.84;5070239;28;20735;-57
2023/01/08 08:35:49;;;;;;;26.33;16.17;;;;;;;8.36;100.00;95343.53;5071597;28;20304;-58
2023/01/08 08:38:14;;;;;;;29.10;17.37;;;;;;;8.81;100.00;95365.03;5072015;28;20189;-57
2023/01/08 08:40:41;;;;;;;29.97;15.53;;;;;;;8.93;100.00;95353.25;5072247;28;20608;-58
2023/01/08 08:43:08;;;;;;;32.50;17.53;;;;;;;8.85;100.00;95341.09;5072220;28;20211;-56
2023/01/08 08:45:34;;;;;;;35.00;20.47;;;;;;;9.26;100.00;95377.19;5072024;28;20718;-56
2023/01/08 08:48:00;;;;;;;36.30;19.67;;;;;;;9.26;97.29;95378.91;5072408;28;20231;-55
2023/01/08 08:50:26;;;;;;;35.60;21.20;;;;;;;9.36;79.85;95374.81;5072121;28;20240;-57
2023/01/08 08:52:51;;;;;;;34.50;19.67;;;;;;;9.73;77.02;95388.31;5072181;28;20705;-57
2023/01/08 08:55:17;;;;;;;31.90;20.23;;;;;;;9.97;75.51;95402.66;5071959;28;20213;-59
2023/01/08 08:57:44;;;;;;;37.17;21.87;;;;;;;10.09;76.13;95380.66;5072169;28;20212;-55
2023/01/08 09:00:10;;;;;;;47.27;21.73;;;;;;;10.07;74.05;95406.19;5072269;28;20209;-57
2023/01/08 09:02:36;;;;;;;36.90;21.57;;;;;;;10.35;73.43;95432.19;5072352;28;20199;-54
2023/01/08 09:05:01;;;;;;;37.80;21.80;;;;;;;10.57;72.47;95440.72;5071854;28;20572;-57
2023/01/08 09:07:27;;;;;;;34.87;22.57;;;;;;;10.73;71.67;95446.31;5072256;28;20570;-59
2023/01/08 09:09:52;;;;;;;35.63;22.87;;;;;;;10.87;70.90;95458.84;5071927;28;20209;-58
2023/01/08 09:12:18;;;;;;;34.87;21.33;;;;;;;11.07;70.25;95464.22;5071849;28;20299;-57
2023/01/08 09:14:43;;;;;;;34.47;21.73;;;;;;;11.36;69.00;95486.56;5071939;28;20201;-57
2023/01/08 09:17:09;;;;;;;34.20;20.23;;;;;;;11.58;67.59;95512.06;5071715;28;20676;-59
2023/01/08 09:19:34;;;;;;;31.23;20.30;;;;;;;11.84;66.73;95522.06;5071626;28;20258;-59
2023/01/08 09:22:01;;;;;;;27.57;19.30;;;;;;;11.79;65.88;95496.94;5071751;28;20606;-58
2023/01/08 09:24:27;;;;;;;32.80;19.30;;;;;;;12.04;65.58;95508.63;5071185;28;20197;-57
2023/01/08 09:26:53;;;;;;;31.20;17.50;;;;;;;12.24;65.20;95520.63;5070784;28;20187;-57
2023/01/08 09:29:19;;;;;;;31.97;18.03;;;;;;;12.42;64.32;95527.66;5053716;28;20266;-60
2023/01/08 09:31:45;;;;;;;31.70;17.60;;;;;;;12.66;64.24;95530.81;5071517;28;20205;-58
2023/01/08 09:34:11;;;;;;;28.07;17.23;;;;;;;12.71;62.77;95553.44;5071432;28;20220;-56
2023/01/08 09:36:36;;;;;;;27.67;17.37;;;;;;;12.71;63.07;95522.81;5071704;28;20211;-59
2023/01/08 09:39:02;;;;;;;25.97;17.07;;;;;;;12.68;62.76;95523.06;5071414;28;20199;-58
2023/01/08 09:41:31;;;;;;;30.20;18.53;;;;;;;12.87;62.76;95507.91;5071438;28;20180;-56
2023/01/08 09:43:58;;;;;;;25.27;15.73;;;;;;;13.28;100.00;94835.59;5071316;28;20197;-56
2023/01/08 09:46:26;;;;;;;28.50;17.83;;;;;;;13.91;66.10;95491.59;5053373;28;20181;-58
2023/01/08 09:48:58;;;;;;;36.13;19.40;;;;;;;13.67;62.63;95501.31;5053769;28;20567;-58
2023/01/08 09:51:29;;;;;;;29.87;19.30;;;;;;;13.27;61.58;95483.34;5071524;28;20196;-59
2023/01/08 09:53:56;;;;;;;34.70;19.07;;;;;;;13.27;61.05;95474.91;5071556;28;20691;-59
2023/01/08 09:56:22;;;;;;;27.40;18.07;;;;;;;13.18;60.56;95475.63;5071442;28;20670;-60
2023/01/08 09:58:49;;;;;;;33.37;18.10;;;;;;;12.92;62.70;95401.16;5071541;28;20620;-56
2023/01/08 10:01:19;;;;;;;29.23;17.97;;;;;;;13.00;62.68;95398.81;5071089;28;20220;-58
2023/01/08 10:03:58;;;;;;;29.10;18.53;;;;;;;13.18;62.37;95415.19;5071509;28;20697;-58
2023/01/08 10:06:24;;;;;;;32.10;20.23;;;;;;;13.31;61.38;95422.63;5071092;28;20208;-56
2023/01/08 10:08:51;;;;;;;28.13;18.83;;;;;;;13.38;62.46;95396.47;5053329;28;20227;-58
2023/01/08 10:11:17;;;;;;;29.60;18.70;;;;;;;13.71;63.36;95369.00;5070823;28;20224;-58
2023/01/08 10:13:48;;;;;;;31.47;19.00;;;;;;;13.80;59.79;95458.47;5071379;28;20270;-58
2023/01/08 10:16:24;;;;;;;34.43;18.80;;;;;;;13.65;58.96;95459.75;5071007;28;20288;-60
2023/01/08 10:18:49;;;;;;;25.87;16.83;;;;;;;13.72;60.29;95422.50;5071521;28;20192;-58
2023/01/08 10:21:16;;;;;;;26.73;17.47;;;;;;;13.74;58.55;95455.59;5052886;28;20203;-57
2023/01/08 10:23:50;;;;;;;27.17;18.37;;;;;;;13.79;58.43;95445.81;5071294;28;20196;-59
2023/01/08 10:26:29;;;;;;;29.50;19.03;;;;;;;13.60;58.67;95448.28;5070137;28;20299;-57
2023/01/08 10:29:13;;;;;;;23.30;16.13;;;;;;;13.44;58.87;95426.59;5052897;28;20220;-56
2023/01/08 10:31:53;;;;;;;24.80;16.30;;;;;;;12.97;59.72;95388.81;5070642;28;20419;-56
2023/01/08 10:34:32;;;;;;;27.83;16.70;;;;;;;13.28;58.62;95416.03;5070842;28;20247;-57
2023/01/08 10:36:57;;;;;;;27.50;16.80;;;;;;;13.62;58.78;95408.09;5070719;28;20267;-56
2023/01/08 10:39:27;;;;;;;26.57;16.27;;;;;;;13.30;59.40;95378.41;5070845;28;20247;-54
2023/01/08 10:42:02;;;;;;;25.33;15.77;;;;;;;13.38;60.25;95355.59;5070618;28;20193;-56
2023/01/08 10:44:29;;;;;;;23.40;15.57;;;;;;;13.98;58.12;95413.44;5070841;28;20311;-59
2023/01/08 10:46:59;;;;;;;24.47;14.63;;;;;;;13.78;57.24;95370.88;5070581;28;20185;-58
2023/01/08 10:49:32;;;;;;;25.27;14.80;;;;;;;14.14;56.85;95436.75;5070644;28;20216;-57
2023/01/08 10:51:59;;;;;;;24.73;15.77;;;;;;;14.30;57.03;95406.38;5070609;28;20212;-59
2023/01/08 10:54:37;;;;;;;26.53;14.80;;;;;;;14.22;56.24;95436.88;5070608;28;20225;-57
2023/01/08 10:57:19;;;;;;;23.47;14.43;;;;;;;13.76;58.27;95359.16;5070462;28;20192;-57
2023/01/08 10:59:45;;;;;;;25.20;14.37;;;;;;;14.08;57.19;95380.19;5052866;28;20291;-59
2023/01/08 11:02:36;;;;;;;23.70;14.80;;;;;;;14.19;56.83;95391.13;5070263;28;20287;-59
2023/01/08 11:05:04;;;;;;;20.10;14.60;;;;;;;14.40;56.42;95406.41;5070476;28;20673;-57
2023/01/08 11:07:34;;;;;;;20.05;13.60;;;;;;;14.46;55.80;95385.41;5070490;28;20647;-58
2023/01/08 11:10:00;;;;;;;19.50;14.30;;;;;;;14.46;53.78;95422.94;5070250;28;20216;-56
2023/01/08 11:12:38;;;;;;;22.80;14.40;;;;;;;14.36;55.48;95366.69;5070376;28;20243;-59
2023/01/08 11:15:22;;;;;;;26.20;15.40;;;;;;;14.02;55.87;95350.06;5070386;28;20263;-58
2023/01/08 11:17:48;;;;;;;21.70;15.90;;;;;;;14.20;56.14;95333.91;5070354;28;20193;-56
2023/01/08 11:20:26;;;;;;;24.07;16.03;;;;;;;14.37;55.48;95357.22;5070237;28;20291;-59
2023/01/08 11:23:03;;;;;;;25.93;16.23;;;;;;;14.39;55.23;95358.72;5070599;28;20253;-55
2023/01/08 11:25:29;;;;;;;22.48;16.77;;;;;;;14.52;54.81;95351.59;5070102;28;20270;-56
2023/01/08 11:27:57;;;;;;;30.40;17.83;;;;;;;14.77;53.89;95386.81;5052446;28;20193;-58
2023/01/08 11:30:25;;;;;;;23.87;15.27;;;;;;;14.14;55.13;95343.88;5070109;28;20205;-54
2023/01/08 11:33:05;;;;;;;24.10;17.67;;;;;;;14.57;53.31;95387.78;5070199;28;20216;-56